Bolingbroke, Georgia
Current Conditions -  °F | °C
As of 6:53 PM on Monday 20 Oct 2014 (Local Time) from KMCN Reporting Station
Clear Clear  
Wind Chill: 66°   Ceiling: Unl
Heat Index: 66°   Visibility: 10mi
Dew Point: 54°   Wind: 0mph
Humidity: 65%   Direction: NA
Pressure: 29.99"   Gusts: NA
Location:  32.95°N, 83.8°W
Report Text: KMCN 202253Z 00000KT 10SM CLR 19/12 A2999 RMK AO2 SLP154 T01890122
Loading
Personal Weather Stations






























Interactive Weather Map
Tropical Storm Tracking
New forecast layout! Learn more

10-Day Weather Forecast

Advertisements
Track Severe Weather on mobile